sensor_id;sensor_type;location;lat;lon;timestamp;P1;durP1;ratioP1;P2;durP2;ratioP2
75930;SDS011;64609;47.052;15.462;2023-09-12T00:00:53;16.73;;;12.90;;
75930;SDS011;64609;47.052;15.462;2023-09-12T00:03:19;16.63;;;13.48;;
75930;SDS011;64609;47.052;15.462;2023-09-12T00:05:53;15.15;;;13.65;;
75930;SDS011;64609;47.052;15.462;2023-09-12T00:08:20;16.42;;;13.57;;
75930;SDS011;64609;47.052;15.462;2023-09-12T00:10:45;15.05;;;13.45;;
75930;SDS011;64609;47.052;15.462;2023-09-12T00:13:11;16.83;;;13.23;;
75930;SDS011;64609;47.052;15.462;2023-09-12T00:15:37;17.13;;;13.82;;
75930;SDS011;64609;47.052;15.462;2023-09-12T00:18:02;17.20;;;14.00;;
75930;SDS011;64609;47.052;15.462;2023-09-12T00:20:29;15.68;;;14.00;;
75930;SDS011;64609;47.052;15.462;2023-09-12T00:22:54;16.42;;;12.98;;
75930;SDS011;64609;47.052;15.462;2023-09-12T00:25:21;15.00;;;13.38;;
75930;SDS011;64609;47.052;15.462;2023-09-12T00:27:46;14.77;;;13.25;;
75930;SDS011;64609;47.052;15.462;2023-09-12T00:30:15;18.20;;;13.55;;
75930;SDS011;64609;47.052;15.462;2023-09-12T00:32:41;17.25;;;14.48;;
75930;SDS011;64609;47.052;15.462;2023-09-12T00:35:07;15.90;;;13.48;;
75930;SDS011;64609;47.052;15.462;2023-09-12T00:37:32;18.35;;;13.25;;
75930;SDS011;64609;47.052;15.462;2023-09-12T00:39:58;16.08;;;14.07;;
75930;SDS011;64609;47.052;15.462;2023-09-12T00:42:27;16.58;;;14.88;;
75930;SDS011;64609;47.052;15.462;2023-09-12T00:44:52;18.60;;;14.63;;
75930;SDS011;64609;47.052;15.462;2023-09-12T00:47:18;16.98;;;14.32;;
75930;SDS011;64609;47.052;15.462;2023-09-12T00:49:46;20.75;;;14.18;;
75930;SDS011;64609;47.052;15.462;2023-09-12T00:52:13;15.45;;;13.90;;
75930;SDS011;64609;47.052;15.462;2023-09-12T00:54:39;15.82;;;14.10;;
75930;SDS011;64609;47.052;15.462;2023-09-12T00:57:05;15.85;;;14.20;;
75930;SDS011;64609;47.052;15.462;2023-09-12T00:59:32;18.67;;;13.65;;
75930;SDS011;64609;47.052;15.462;2023-09-12T01:01:58;20.08;;;13.60;;
75930;SDS011;64609;47.052;15.462;2023-09-12T01:04:25;15.43;;;13.48;;
75930;SDS011;64609;47.052;15.462;2023-09-12T01:06:51;18.65;;;14.50;;
75930;SDS011;64609;47.052;15.462;2023-09-12T01:09:17;15.02;;;13.50;;
75930;SDS011;64609;47.052;15.462;2023-09-12T01:11:43;20.02;;;14.45;;
75930;SDS011;64609;47.052;15.462;2023-09-12T01:14:09;15.18;;;13.55;;
75930;SDS011;64609;47.052;15.462;2023-09-12T01:16:35;15.13;;;13.57;;
75930;SDS011;64609;47.052;15.462;2023-09-12T01:19:01;19.67;;;14.13;;
75930;SDS011;64609;47.052;15.462;2023-09-12T01:24:25;17.60;;;13.85;;
75930;SDS011;64609;47.052;15.462;2023-09-12T01:27:34;20.33;;;13.55;;
75930;SDS011;64609;47.052;15.462;2023-09-12T01:30:04;17.55;;;14.70;;
75930;SDS011;64609;47.052;15.462;2023-09-12T01:32:32;16.48;;;14.77;;
75930;SDS011;64609;47.052;15.462;2023-09-12T01:34:58;15.85;;;14.27;;
75930;SDS011;64609;47.052;15.462;2023-09-12T01:37:24;17.73;;;13.68;;
75930;SDS011;64609;47.052;15.462;2023-09-12T01:39:51;15.57;;;14.02;;
75930;SDS011;64609;47.052;15.462;2023-09-12T01:42:18;14.48;;;13.13;;
75930;SDS011;64609;47.052;15.462;2023-09-12T01:44:46;15.23;;;13.63;;
75930;SDS011;64609;47.052;15.462;2023-09-12T01:47:14;15.32;;;13.70;;
75930;SDS011;64609;47.052;15.462;2023-09-12T01:49:44;15.77;;;12.95;;
75930;SDS011;64609;47.052;15.462;2023-09-12T01:52:13;15.57;;;14.07;;
75930;SDS011;64609;47.052;15.462;2023-09-12T01:54:40;15.48;;;13.95;;
75930;SDS011;64609;47.052;15.462;2023-09-12T01:57:07;16.17;;;14.63;;
75930;SDS011;64609;47.052;15.462;2023-09-12T01:59:34;16.92;;;14.82;;
75930;SDS011;64609;47.052;15.462;2023-09-12T02:02:00;16.27;;;13.63;;
75930;SDS011;64609;47.052;15.462;2023-09-12T02:04:25;16.73;;;13.77;;
75930;SDS011;64609;47.052;15.462;2023-09-12T02:06:51;17.88;;;14.57;;
75930;SDS011;64609;47.052;15.462;2023-09-12T02:09:17;16.15;;;14.23;;
75930;SDS011;64609;47.052;15.462;2023-09-12T02:11:42;16.63;;;14.77;;
75930;SDS011;64609;47.052;15.462;2023-09-12T02:14:08;16.38;;;14.68;;
75930;SDS011;64609;47.052;15.462;2023-09-12T02:16:36;15.52;;;14.02;;
75930;SDS011;64609;47.052;15.462;2023-09-12T02:19:02;21.38;;;14.85;;
75930;SDS011;64609;47.052;15.462;2023-09-12T02:21:28;16.27;;;14.68;;
75930;SDS011;64609;47.052;15.462;2023-09-12T02:23:54;15.50;;;13.88;;
75930;SDS011;64609;47.052;15.462;2023-09-12T02:26:20;17.00;;;15.07;;
75930;SDS011;64609;47.052;15.462;2023-09-12T02:28:46;17.42;;;14.90;;
75930;SDS011;64609;47.052;15.462;2023-09-12T02:31:11;15.80;;;14.30;;
75930;SDS011;64609;47.052;15.462;2023-09-12T02:33:38;17.67;;;14.05;;
75930;SDS011;64609;47.052;15.462;2023-09-12T02:36:04;17.15;;;15.45;;
75930;SDS011;64609;47.052;15.462;2023-09-12T02:38:30;16.38;;;14.77;;
75930;SDS011;64609;47.052;15.462;2023-09-12T02:40:56;16.52;;;14.93;;
75930;SDS011;64609;47.052;15.462;2023-09-12T02:43:21;15.55;;;14.07;;
75930;SDS011;64609;47.052;15.462;2023-09-12T02:45:47;15.95;;;13.68;;
75930;SDS011;64609;47.052;15.462;2023-09-12T02:48:13;16.45;;;14.55;;
75930;SDS011;64609;47.052;15.462;2023-09-12T02:50:38;16.33;;;14.40;;
75930;SDS011;64609;47.052;15.462;2023-09-12T02:53:04;14.70;;;13.38;;
75930;SDS011;64609;47.052;15.462;2023-09-12T02:55:31;15.77;;;14.13;;
75930;SDS011;64609;47.052;15.462;2023-09-12T02:57:57;15.10;;;13.65;;
75930;SDS011;64609;47.052;15.462;2023-09-12T03:00:22;17.73;;;13.88;;
75930;SDS011;64609;47.052;15.462;2023-09-12T03:02:48;17.35;;;15.02;;
75930;SDS011;64609;47.052;15.462;2023-09-12T03:05:13;16.10;;;14.43;;
75930;SDS011;64609;47.052;15.462;2023-09-12T03:07:39;19.92;;;14.60;;
75930;SDS011;64609;47.052;15.462;2023-09-12T03:10:05;15.27;;;13.68;;
75930;SDS011;64609;47.052;15.462;2023-09-12T03:12:31;15.98;;;14.48;;
75930;SDS011;64609;47.052;15.462;2023-09-12T03:14:56;17.30;;;14.20;;
75930;SDS011;64609;47.052;15.462;2023-09-12T03:17:22;15.32;;;13.93;;
75930;SDS011;64609;47.052;15.462;2023-09-12T03:19:48;15.38;;;13.95;;
75930;SDS011;64609;47.052;15.462;2023-09-12T03:22:13;16.60;;;14.85;;
75930;SDS011;64609;47.052;15.462;2023-09-12T03:24:39;16.52;;;14.98;;
75930;SDS011;64609;47.052;15.462;2023-09-12T03:27:05;15.23;;;13.65;;
75930;SDS011;64609;47.052;15.462;2023-09-12T03:29:30;18.75;;;13.35;;
75930;SDS011;64609;47.052;15.462;2023-09-12T03:31:56;15.00;;;13.50;;
75930;SDS011;64609;47.052;15.462;2023-09-12T03:34:21;23.17;;;14.27;;
75930;SDS011;64609;47.052;15.462;2023-09-12T03:36:47;15.13;;;13.60;;
75930;SDS011;64609;47.052;15.462;2023-09-12T03:39:13;15.15;;;13.10;;
75930;SDS011;64609;47.052;15.462;2023-09-12T03:41:39;15.93;;;14.23;;
75930;SDS011;64609;47.052;15.462;2023-09-12T03:44:05;15.00;;;13.55;;
75930;SDS011;64609;47.052;15.462;2023-09-12T03:46:31;19.02;;;14.60;;
75930;SDS011;64609;47.052;15.462;2023-09-12T03:48:57;16.55;;;14.25;;
75930;SDS011;64609;47.052;15.462;2023-09-12T03:51:23;15.65;;;14.05;;
75930;SDS011;64609;47.052;15.462;2023-09-12T03:53:48;15.30;;;13.80;;
75930;SDS011;64609;47.052;15.462;2023-09-12T03:56:15;18.33;;;14.93;;
75930;SDS011;64609;47.052;15.462;2023-09-12T03:58:41;16.92;;;15.15;;
75930;SDS011;64609;47.052;15.462;2023-09-12T04:01:07;21.17;;;15.13;;
75930;SDS011;64609;47.052;15.462;2023-09-12T04:03:32;19.80;;;14.93;;
75930;SDS011;64609;47.052;15.462;2023-09-12T04:05:58;19.38;;;13.88;;
75930;SDS011;64609;47.052;15.462;2023-09-12T04:08:24;17.27;;;15.25;;
75930;SDS011;64609;47.052;15.462;2023-09-12T04:10:49;16.67;;;14.90;;
75930;SDS011;64609;47.052;15.462;2023-09-12T04:13:15;15.65;;;13.90;;
75930;SDS011;64609;47.052;15.462;2023-09-12T04:15:41;17.08;;;15.13;;
75930;SDS011;64609;47.052;15.462;2023-09-12T04:18:06;17.83;;;14.93;;
75930;SDS011;64609;47.052;15.462;2023-09-12T04:20:32;17.67;;;14.93;;
75930;SDS011;64609;47.052;15.462;2023-09-12T04:23:00;17.85;;;15.90;;
75930;SDS011;64609;47.052;15.462;2023-09-12T04:25:27;18.60;;;15.00;;
75930;SDS011;64609;47.052;15.462;2023-09-12T04:27:53;15.82;;;14.10;;
75930;SDS011;64609;47.052;15.462;2023-09-12T04:30:19;16.55;;;14.65;;
75930;SDS011;64609;47.052;15.462;2023-09-12T04:32:45;16.85;;;15.00;;
75930;SDS011;64609;47.052;15.462;2023-09-12T04:35:10;18.92;;;14.77;;
75930;SDS011;64609;47.052;15.462;2023-09-12T04:37:36;17.45;;;14.60;;
75930;SDS011;64609;47.052;15.462;2023-09-12T04:40:02;19.10;;;15.23;;
75930;SDS011;64609;47.052;15.462;2023-09-12T04:42:30;17.23;;;15.55;;
75930;SDS011;64609;47.052;15.462;2023-09-12T04:44:56;15.30;;;13.80;;
75930;SDS011;64609;47.052;15.462;2023-09-12T04:47:22;17.42;;;14.55;;
75930;SDS011;64609;47.052;15.462;2023-09-12T04:49:48;17.63;;;14.48;;
75930;SDS011;64609;47.052;15.462;2023-09-12T04:52:14;18.85;;;14.23;;
75930;SDS011;64609;47.052;15.462;2023-09-12T04:54:40;16.45;;;14.75;;
75930;SDS011;64609;47.052;15.462;2023-09-12T04:57:05;21.75;;;15.10;;
75930;SDS011;64609;47.052;15.462;2023-09-12T04:59:32;18.15;;;14.60;;
75930;SDS011;64609;47.052;15.462;2023-09-12T05:01:58;18.58;;;14.93;;
75930;SDS011;64609;47.052;15.462;2023-09-12T05:04:23;15.80;;;14.20;;
75930;SDS011;64609;47.052;15.462;2023-09-12T05:06:49;16.88;;;15.23;;
75930;SDS011;64609;47.052;15.462;2023-09-12T05:09:15;16.30;;;14.57;;
75930;SDS011;64609;47.052;15.462;2023-09-12T05:11:41;18.88;;;16.30;;
75930;SDS011;64609;47.052;15.462;2023-09-12T05:14:06;23.75;;;17.77;;
75930;SDS011;64609;47.052;15.462;2023-09-12T05:16:32;17.52;;;15.68;;
75930;SDS011;64609;47.052;15.462;2023-09-12T05:18:58;20.35;;;16.25;;
75930;SDS011;64609;47.052;15.462;2023-09-12T05:21:23;20.13;;;15.80;;
75930;SDS011;64609;47.052;15.462;2023-09-12T05:23:49;17.13;;;14.63;;
75930;SDS011;64609;47.052;15.462;2023-09-12T05:26:15;19.35;;;15.07;;
75930;SDS011;64609;47.052;15.462;2023-09-12T05:28:41;18.95;;;15.77;;
75930;SDS011;64609;47.052;15.462;2023-09-12T05:31:06;19.40;;;15.88;;
75930;SDS011;64609;47.052;15.462;2023-09-12T05:33:32;19.10;;;16.45;;
75930;SDS011;64609;47.052;15.462;2023-09-12T05:35:57;19.25;;;16.05;;
75930;SDS011;64609;47.052;15.462;2023-09-12T05:38:23;22.08;;;16.25;;
75930;SDS011;64609;47.052;15.462;2023-09-12T05:40:49;24.73;;;16.50;;
75930;SDS011;64609;47.052;15.462;2023-09-12T05:43:15;24.02;;;15.52;;
75930;SDS011;64609;47.052;15.462;2023-09-12T05:45:41;27.08;;;17.33;;
75930;SDS011;64609;47.052;15.462;2023-09-12T05:48:07;20.80;;;16.13;;
75930;SDS011;64609;47.052;15.462;2023-09-12T05:50:34;19.63;;;15.68;;
75930;SDS011;64609;47.052;15.462;2023-09-12T05:53:01;23.10;;;17.15;;
75930;SDS011;64609;47.052;15.462;2023-09-12T05:55:27;24.88;;;17.30;;
75930;SDS011;64609;47.052;15.462;2023-09-12T05:57:53;33.60;;;16.48;;
75930;SDS011;64609;47.052;15.462;2023-09-12T06:00:19;20.45;;;16.42;;
75930;SDS011;64609;47.052;15.462;2023-09-12T06:02:45;20.80;;;16.45;;
75930;SDS011;64609;47.052;15.462;2023-09-12T06:05:11;21.38;;;16.67;;
75930;SDS011;64609;47.052;15.462;2023-09-12T06:07:37;19.65;;;16.75;;
75930;SDS011;64609;47.052;15.462;2023-09-12T06:10:05;20.80;;;16.73;;
75930;SDS011;64609;47.052;15.462;2023-09-12T06:12:31;22.30;;;16.02;;
75930;SDS011;64609;47.052;15.462;2023-09-12T06:14:58;22.08;;;16.92;;
75930;SDS011;64609;47.052;15.462;2023-09-12T06:17:24;29.42;;;16.40;;
75930;SDS011;64609;47.052;15.462;2023-09-12T06:19:50;21.52;;;16.10;;
75930;SDS011;64609;47.052;15.462;2023-09-12T06:22:16;18.77;;;15.88;;
75930;SDS011;64609;47.052;15.462;2023-09-12T06:24:42;18.55;;;15.98;;
75930;SDS011;64609;47.052;15.462;2023-09-12T06:27:08;23.65;;;16.25;;
75930;SDS011;64609;47.052;15.462;2023-09-12T06:29:35;23.25;;;15.90;;
75930;SDS011;64609;47.052;15.462;2023-09-12T06:32:00;27.40;;;16.42;;
75930;SDS011;64609;47.052;15.462;2023-09-12T06:34:27;20.23;;;14.50;;
75930;SDS011;64609;47.052;15.462;2023-09-12T06:36:52;21.60;;;15.60;;
75930;SDS011;64609;47.052;15.462;2023-09-12T06:39:18;19.38;;;15.10;;
75930;SDS011;64609;47.052;15.462;2023-09-12T06:41:44;25.80;;;15.38;;
75930;SDS011;64609;47.052;15.462;2023-09-12T06:44:10;21.10;;;14.32;;
75930;SDS011;64609;47.052;15.462;2023-09-12T06:46:37;23.90;;;14.20;;
75930;SDS011;64609;47.052;15.462;2023-09-12T06:49:03;19.33;;;14.88;;
75930;SDS011;64609;47.052;15.462;2023-09-12T06:51:28;22.75;;;14.23;;
75930;SDS011;64609;47.052;15.462;2023-09-12T06:53:54;18.55;;;12.88;;
75930;SDS011;64609;47.052;15.462;2023-09-12T06:56:20;27.98;;;14.27;;
75930;SDS011;64609;47.052;15.462;2023-09-12T06:58:47;21.13;;;15.02;;
75930;SDS011;64609;47.052;15.462;2023-09-12T07:01:13;18.83;;;14.00;;
75930;SDS011;64609;47.052;15.462;2023-09-12T07:03:39;20.02;;;13.20;;
75930;SDS011;64609;47.052;15.462;2023-09-12T07:06:05;25.50;;;13.25;;
75930;SDS011;64609;47.052;15.462;2023-09-12T07:08:31;23.25;;;14.07;;
75930;SDS011;64609;47.052;15.462;2023-09-12T07:10:57;23.58;;;13.85;;
75930;SDS011;64609;47.052;15.462;2023-09-12T07:13:30;21.35;;;12.25;;
75930;SDS011;64609;47.052;15.462;2023-09-12T07:15:56;29.85;;;13.45;;
75930;SDS011;64609;47.052;15.462;2023-09-12T07:18:22;29.50;;;14.52;;
75930;SDS011;64609;47.052;15.462;2023-09-12T07:20:57;23.10;;;14.38;;
75930;SDS011;64609;47.052;15.462;2023-09-12T07:23:26;24.08;;;13.30;;
75930;SDS011;64609;47.052;15.462;2023-09-12T07:25:52;25.35;;;12.98;;
75930;SDS011;64609;47.052;15.462;2023-09-12T07:28:20;25.88;;;13.80;;
75930;SDS011;64609;47.052;15.462;2023-09-12T07:30:46;27.10;;;13.18;;
75930;SDS011;64609;47.052;15.462;2023-09-12T07:33:12;23.75;;;12.52;;
75930;SDS011;64609;47.052;15.462;2023-09-12T07:35:37;22.63;;;13.32;;
75930;SDS011;64609;47.052;15.462;2023-09-12T07:38:03;26.70;;;12.95;;
75930;SDS011;64609;47.052;15.462;2023-09-12T07:40:29;24.02;;;12.75;;
75930;SDS011;64609;47.052;15.462;2023-09-12T07:42:55;18.15;;;11.98;;
75930;SDS011;64609;47.052;15.462;2023-09-12T07:45:20;24.88;;;11.07;;
75930;SDS011;64609;47.052;15.462;2023-09-12T07:47:46;19.80;;;11.93;;
75930;SDS011;64609;47.052;15.462;2023-09-12T07:50:12;23.23;;;12.15;;
75930;SDS011;64609;47.052;15.462;2023-09-12T07:52:37;21.17;;;12.35;;
75930;SDS011;64609;47.052;15.462;2023-09-12T07:55:03;26.13;;;13.63;;
75930;SDS011;64609;47.052;15.462;2023-09-12T07:57:30;23.92;;;11.60;;
75930;SDS011;64609;47.052;15.462;2023-09-12T07:59:56;25.48;;;11.60;;
75930;SDS011;64609;47.052;15.462;2023-09-12T08:02:21;21.77;;;11.55;;
75930;SDS011;64609;47.052;15.462;2023-09-12T08:04:51;20.30;;;11.73;;
75930;SDS011;64609;47.052;15.462;2023-09-12T08:07:16;23.33;;;11.63;;
75930;SDS011;64609;47.052;15.462;2023-09-12T08:09:55;24.70;;;12.10;;
75930;SDS011;64609;47.052;15.462;2023-09-12T08:12:23;29.42;;;11.75;;
75930;SDS011;64609;47.052;15.462;2023-09-12T08:14:49;23.20;;;11.57;;
75930;SDS011;64609;47.052;15.462;2023-09-12T08:17:15;18.70;;;10.18;;
75930;SDS011;64609;47.052;15.462;2023-09-12T08:19:41;18.08;;;10.70;;
75930;SDS011;64609;47.052;15.462;2023-09-12T08:22:07;13.23;;;10.27;;
75930;SDS011;64609;47.052;15.462;2023-09-12T08:24:34;18.02;;;9.45;;
75930;SDS011;64609;47.052;15.462;2023-09-12T08:27:01;21.80;;;9.98;;
75930;SDS011;64609;47.052;15.462;2023-09-12T08:29:28;17.38;;;9.88;;
75930;SDS011;64609;47.052;15.462;2023-09-12T08:31:54;14.77;;;9.52;;
75930;SDS011;64609;47.052;15.462;2023-09-12T08:34:20;20.23;;;11.02;;
75930;SDS011;64609;47.052;15.462;2023-09-12T08:36:46;16.85;;;10.32;;
75930;SDS011;64609;47.052;15.462;2023-09-12T08:39:13;18.48;;;9.50;;
75930;SDS011;64609;47.052;15.462;2023-09-12T08:41:41;20.05;;;9.50;;
75930;SDS011;64609;47.052;15.462;2023-09-12T08:44:07;20.52;;;9.45;;
75930;SDS011;64609;47.052;15.462;2023-09-12T08:46:34;13.90;;;9.00;;
75930;SDS011;64609;47.052;15.462;2023-09-12T08:49:00;18.73;;;9.15;;
75930;SDS011;64609;47.052;15.462;2023-09-12T08:51:25;17.67;;;8.63;;
75930;SDS011;64609;47.052;15.462;2023-09-12T08:53:52;14.73;;;8.15;;
75930;SDS011;64609;47.052;15.462;2023-09-12T08:56:18;17.60;;;8.45;;
75930;SDS011;64609;47.052;15.462;2023-09-12T08:58:44;31.25;;;9.52;;
75930;SDS011;64609;47.052;15.462;2023-09-12T09:01:11;13.75;;;8.43;;
75930;SDS011;64609;47.052;15.462;2023-09-12T09:03:39;15.68;;;9.10;;
75930;SDS011;64609;47.052;15.462;2023-09-12T09:06:08;16.02;;;8.77;;
75930;SDS011;64609;47.052;15.462;2023-09-12T09:08:34;14.75;;;8.48;;
75930;SDS011;64609;47.052;15.462;2023-09-12T09:11:00;17.33;;;8.15;;
75930;SDS011;64609;47.052;15.462;2023-09-12T09:13:31;17.08;;;8.70;;
75930;SDS011;64609;47.052;15.462;2023-09-12T09:16:13;24.92;;;9.25;;
75930;SDS011;64609;47.052;15.462;2023-09-12T09:21:23;15.30;;;8.67;;
75930;SDS011;64609;47.052;15.462;2023-09-12T09:23:51;18.38;;;8.65;;
75930;SDS011;64609;47.052;15.462;2023-09-12T09:26:17;23.60;;;8.75;;
75930;SDS011;64609;47.052;15.462;2023-09-12T09:28:44;15.30;;;9.10;;
75930;SDS011;64609;47.052;15.462;2023-09-12T09:31:13;21.05;;;8.20;;
75930;SDS011;64609;47.052;15.462;2023-09-12T09:33:40;17.17;;;8.93;;
75930;SDS011;64609;47.052;15.462;2023-09-12T09:36:06;12.90;;;8.15;;
75930;SDS011;64609;47.052;15.462;2023-09-12T09:38:36;20.23;;;8.90;;
75930;SDS011;64609;47.052;15.462;2023-09-12T09:41:05;13.90;;;8.73;;
75930;SDS011;64609;47.052;15.462;2023-09-12T09:43:31;19.58;;;8.30;;
75930;SDS011;64609;47.052;15.462;2023-09-12T09:45:57;18.17;;;8.15;;
75930;SDS011;64609;47.052;15.462;2023-09-12T09:48:24;16.15;;;8.77;;
75930;SDS011;64609;47.052;15.462;2023-09-12T09:50:53;17.58;;;8.45;;
75930;SDS011;64609;47.052;15.462;2023-09-12T09:53:26;14.68;;;8.40;;
75930;SDS011;64609;47.052;15.462;2023-09-12T09:55:58;17.50;;;8.32;;
75930;SDS011;64609;47.052;15.462;2023-09-12T10:01:14;17.00;;;8.23;;
75930;SDS011;64609;47.052;15.462;2023-09-12T10:03:46;21.15;;;8.38;;
75930;SDS011;64609;47.052;15.462;2023-09-12T10:06:13;12.73;;;8.77;;
75930;SDS011;64609;47.052;15.462;2023-09-12T10:08:44;17.77;;;7.85;;
75930;SDS011;64609;47.052;15.462;2023-09-12T10:11:23;13.85;;;8.07;;
75930;SDS011;64609;47.052;15.462;2023-09-12T10:13:53;23.08;;;8.55;;
75930;SDS011;64609;47.052;15.462;2023-09-12T10:16:20;16.95;;;8.05;;
75930;SDS011;64609;47.052;15.462;2023-09-12T10:22:25;11.15;;;7.55;;
75930;SDS011;64609;47.052;15.462;2023-09-12T10:24:28;19.77;;;8.48;;
75930;SDS011;64609;47.052;15.462;2023-09-12T10:26:55;12.93;;;8.20;;
75930;SDS011;64609;47.052;15.462;2023-09-12T10:29:23;13.15;;;7.72;;
75930;SDS011;64609;47.052;15.462;2023-09-12T10:31:48;13.07;;;8.02;;
75930;SDS011;64609;47.052;15.462;2023-09-12T10:34:15;10.45;;;7.47;;
75930;SDS011;64609;47.052;15.462;2023-09-12T10:36:42;14.52;;;8.43;;
75930;SDS011;64609;47.052;15.462;2023-09-12T10:39:09;11.32;;;8.05;;
75930;SDS011;64609;47.052;15.462;2023-09-12T10:41:39;18.67;;;8.77;;
75930;SDS011;64609;47.052;15.462;2023-09-12T10:44:16;14.20;;;8.18;;
75930;SDS011;64609;47.052;15.462;2023-09-12T10:46:43;14.10;;;7.93;;
75930;SDS011;64609;47.052;15.462;2023-09-12T10:49:11;13.98;;;8.05;;
75930;SDS011;64609;47.052;15.462;2023-09-12T10:51:41;11.68;;;7.72;;
75930;SDS011;64609;47.052;15.462;2023-09-12T10:54:09;15.23;;;7.90;;
75930;SDS011;64609;47.052;15.462;2023-09-12T10:56:47;12.50;;;8.07;;
75930;SDS011;64609;47.052;15.462;2023-09-12T10:59:28;15.63;;;7.55;;
75930;SDS011;64609;47.052;15.462;2023-09-12T11:01:57;10.80;;;7.30;;
75930;SDS011;64609;47.052;15.462;2023-09-12T11:05:04;13.13;;;7.65;;
75930;SDS011;64609;47.052;15.462;2023-09-12T11:07:50;12.55;;;7.68;;
75930;SDS011;64609;47.052;15.462;2023-09-12T11:10:19;10.88;;;7.53;;
75930;SDS011;64609;47.052;15.462;2023-09-12T11:12:49;12.10;;;7.95;;
75930;SDS011;64609;47.052;15.462;2023-09-12T11:15:20;9.93;;;6.78;;
75930;SDS011;64609;47.052;15.462;2023-09-12T11:17:47;14.93;;;7.68;;
75930;SDS011;64609;47.052;15.462;2023-09-12T11:20:14;14.10;;;7.22;;
75930;SDS011;64609;47.052;15.462;2023-09-12T11:22:44;13.52;;;7.20;;
75930;SDS011;64609;47.052;15.462;2023-09-12T11:30:19;11.05;;;7.03;;
75930;SDS011;64609;47.052;15.462;2023-09-12T11:32:48;11.38;;;7.60;;
75930;SDS011;64609;47.052;15.462;2023-09-12T11:35:15;14.05;;;7.32;;
75930;SDS011;64609;47.052;15.462;2023-09-12T11:37:50;10.68;;;6.88;;
75930;SDS011;64609;47.052;15.462;2023-09-12T11:41:02;10.88;;;6.97;;
75930;SDS011;64609;47.052;15.462;2023-09-12T11:43:20;11.57;;;7.22;;
75930;SDS011;64609;47.052;15.462;2023-09-12T11:45:50;11.88;;;7.05;;
75930;SDS011;64609;47.052;15.462;2023-09-12T11:48:16;11.02;;;7.90;;
75930;SDS011;64609;47.052;15.462;2023-09-12T11:50:42;12.45;;;7.32;;
75930;SDS011;64609;47.052;15.462;2023-09-12T11:53:15;11.20;;;7.38;;
75930;SDS011;64609;47.052;15.462;2023-09-12T11:55:59;10.52;;;6.82;;
75930;SDS011;64609;47.052;15.462;2023-09-12T11:58:26;14.10;;;7.05;;
75930;SDS011;64609;47.052;15.462;2023-09-12T12:00:55;16.38;;;7.50;;
75930;SDS011;64609;47.052;15.462;2023-09-12T12:03:23;12.45;;;6.63;;
75930;SDS011;64609;47.052;15.462;2023-09-12T12:05:50;9.98;;;7.07;;
75930;SDS011;64609;47.052;15.462;2023-09-12T12:08:16;14.23;;;6.97;;
75930;SDS011;64609;47.052;15.462;2023-09-12T12:10:43;9.63;;;6.60;;
75930;SDS011;64609;47.052;15.462;2023-09-12T12:13:12;12.95;;;6.70;;
75930;SDS011;64609;47.052;15.462;2023-09-12T12:15:42;14.85;;;7.05;;
75930;SDS011;64609;47.052;15.462;2023-09-12T12:18:07;12.25;;;6.63;;
75930;SDS011;64609;47.052;15.462;2023-09-12T12:20:33;10.65;;;6.40;;
75930;SDS011;64609;47.052;15.462;2023-09-12T12:22:58;17.63;;;6.95;;
75930;SDS011;64609;47.052;15.462;2023-09-12T12:25:24;11.35;;;6.40;;
75930;SDS011;64609;47.052;15.462;2023-09-12T12:27:50;9.82;;;6.68;;
75930;SDS011;64609;47.052;15.462;2023-09-12T12:30:17;10.23;;;6.75;;
75930;SDS011;64609;47.052;15.462;2023-09-12T12:32:43;11.57;;;6.38;;
75930;SDS011;64609;47.052;15.462;2023-09-12T12:35:18;9.45;;;6.55;;
75930;SDS011;64609;47.052;15.462;2023-09-12T12:37:47;10.18;;;7.03;;
75930;SDS011;64609;47.052;15.462;2023-09-12T12:40:14;12.25;;;6.60;;
75930;SDS011;64609;47.052;15.462;2023-09-12T12:42:40;12.73;;;6.50;;
75930;SDS011;64609;47.052;15.462;2023-09-12T12:45:10;9.75;;;6.68;;
75930;SDS011;64609;47.052;15.462;2023-09-12T12:50:16;13.82;;;7.78;;
75930;SDS011;64609;47.052;15.462;2023-09-12T12:52:45;12.60;;;6.78;;
75930;SDS011;64609;47.052;15.462;2023-09-12T12:55:13;12.63;;;6.83;;
75930;SDS011;64609;47.052;15.462;2023-09-12T12:57:41;15.88;;;6.78;;
75930;SDS011;64609;47.052;15.462;2023-09-12T13:00:08;11.90;;;7.03;;
75930;SDS011;64609;47.052;15.462;2023-09-12T13:02:39;11.05;;;6.88;;
75930;SDS011;64609;47.052;15.462;2023-09-12T13:05:06;13.52;;;6.80;;
75930;SDS011;64609;47.052;15.462;2023-09-12T13:07:52;10.63;;;6.68;;
75930;SDS011;64609;47.052;15.462;2023-09-12T13:10:19;13.20;;;6.65;;
75930;SDS011;64609;47.052;15.462;2023-09-12T13:12:45;12.07;;;6.68;;
75930;SDS011;64609;47.052;15.462;2023-09-12T13:15:12;14.75;;;6.78;;
75930;SDS011;64609;47.052;15.462;2023-09-12T13:17:38;13.25;;;6.95;;
75930;SDS011;64609;47.052;15.462;2023-09-12T13:20:04;12.02;;;6.85;;
75930;SDS011;64609;47.052;15.462;2023-09-12T13:22:33;16.27;;;6.82;;
75930;SDS011;64609;47.052;15.462;2023-09-12T13:24:59;15.52;;;6.88;;
75930;SDS011;64609;47.052;15.462;2023-09-12T13:27:25;9.65;;;6.50;;
75930;SDS011;64609;47.052;15.462;2023-09-12T13:29:50;8.35;;;6.70;;
75930;SDS011;64609;47.052;15.462;2023-09-12T13:32:16;14.05;;;6.68;;
75930;SDS011;64609;47.052;15.462;2023-09-12T13:34:43;13.43;;;7.00;;
75930;SDS011;64609;47.052;15.462;2023-09-12T13:37:09;10.55;;;6.68;;
75930;SDS011;64609;47.052;15.462;2023-09-12T13:39:35;10.38;;;7.07;;
75930;SDS011;64609;47.052;15.462;2023-09-12T13:42:01;12.02;;;6.97;;
75930;SDS011;64609;47.052;15.462;2023-09-12T13:44:28;15.77;;;6.75;;
75930;SDS011;64609;47.052;15.462;2023-09-12T13:46:54;11.93;;;7.00;;
75930;SDS011;64609;47.052;15.462;2023-09-12T13:49:19;9.93;;;6.75;;
75930;SDS011;64609;47.052;15.462;2023-09-12T13:51:45;14.93;;;7.03;;
75930;SDS011;64609;47.052;15.462;2023-09-12T13:54:11;11.35;;;6.63;;
75930;SDS011;64609;47.052;15.462;2023-09-12T13:56:40;10.30;;;6.60;;
75930;SDS011;64609;47.052;15.462;2023-09-12T13:59:06;17.27;;;7.55;;
75930;SDS011;64609;47.052;15.462;2023-09-12T14:01:32;9.05;;;6.90;;
75930;SDS011;64609;47.052;15.462;2023-09-12T14:03:57;15.15;;;7.22;;
75930;SDS011;64609;47.052;15.462;2023-09-12T14:06:23;11.48;;;6.65;;
75930;SDS011;64609;47.052;15.462;2023-09-12T14:08:49;12.10;;;6.50;;
75930;SDS011;64609;47.052;15.462;2023-09-12T14:11:14;16.13;;;6.68;;
75930;SDS011;64609;47.052;15.462;2023-09-12T14:13:40;14.35;;;6.47;;
75930;SDS011;64609;47.052;15.462;2023-09-12T14:16:06;12.52;;;6.50;;
75930;SDS011;64609;47.052;15.462;2023-09-12T14:18:31;12.75;;;7.10;;
75930;SDS011;64609;47.052;15.462;2023-09-12T14:20:57;13.02;;;7.05;;
75930;SDS011;64609;47.052;15.462;2023-09-12T14:23:22;11.98;;;6.72;;
75930;SDS011;64609;47.052;15.462;2023-09-12T14:25:48;12.73;;;6.88;;
75930;SDS011;64609;47.052;15.462;2023-09-12T14:28:14;12.07;;;7.22;;
75930;SDS011;64609;47.052;15.462;2023-09-12T14:30:39;10.38;;;6.65;;
75930;SDS011;64609;47.052;15.462;2023-09-12T14:33:09;13.98;;;6.70;;